createdAt,value
2019-01-02T00:00:17.366Z,0
2019-01-02T00:01:16.102Z,0
2019-01-02T00:02:16.578Z,0
2019-01-02T00:03:17.321Z,0
2019-01-02T00:04:16.560Z,0
2019-01-02T00:05:16.542Z,0
2019-01-02T00:06:16.300Z,0
2019-01-02T00:07:16.303Z,0
2019-01-02T00:08:17.201Z,0
2019-01-02T00:09:16.291Z,0
2019-01-02T00:10:16.503Z,0
2019-01-02T00:11:16.774Z,0
2019-01-02T00:12:15.748Z,0
2019-01-02T00:13:16.264Z,0
2019-01-02T00:14:16.531Z,0
2019-01-02T00:15:15.959Z,0
2019-01-02T00:16:16.727Z,0
2019-01-02T00:17:16.452Z,0
2019-01-02T00:18:16.197Z,0
2019-01-02T00:19:17.005Z,0
2019-01-02T00:20:16.221Z,0
2019-01-02T00:21:16.192Z,0
2019-01-02T00:22:16.166Z,0
2019-01-02T00:23:16.388Z,0
2019-01-02T00:24:16.906Z,0
2019-01-02T00:25:16.115Z,0
2019-01-02T00:26:16.358Z,0
2019-01-02T00:27:16.922Z,0
2019-01-02T00:28:16.351Z,0
2019-01-02T00:29:16.350Z,0
2019-01-02T00:30:16.947Z,0
2019-01-02T00:31:16.324Z,0
2019-01-02T00:32:17.092Z,0
2019-01-02T00:33:21.404Z,0
2019-01-02T00:34:16.296Z,0
2019-01-02T00:35:17.241Z,0
2019-01-02T00:36:16.261Z,0
2019-01-02T00:37:16.375Z,0
2019-01-02T00:38:16.261Z,0
2019-01-02T00:39:16.100Z,0
2019-01-02T00:40:17.277Z,0
2019-01-02T00:41:16.010Z,0
2019-01-02T00:42:15.954Z,0
2019-01-02T00:43:16.467Z,0
2019-01-02T00:44:17.185Z,0
2019-01-02T00:45:22.177Z,0
2019-01-02T00:46:15.915Z,0
2019-01-02T00:47:15.920Z,0
2019-01-02T00:48:16.961Z,0
2019-01-02T00:49:16.196Z,0
2019-01-02T00:50:16.165Z,0
2019-01-02T00:51:15.870Z,0
2019-01-02T00:52:15.862Z,0
2019-01-02T00:53:17.028Z,0
2019-01-02T00:54:15.874Z,0
2019-01-02T00:55:16.473Z,0
2019-01-02T00:56:16.057Z,0
2019-01-02T00:57:15.579Z,0
2019-01-02T00:58:16.692Z,0
2019-01-02T00:59:16.054Z,0
2019-01-02T01:00:16.797Z,0
2019-01-02T01:01:15.769Z,0
2019-01-02T01:02:16.012Z,0
2019-01-02T01:03:16.806Z,0
2019-01-02T01:04:15.802Z,0
2019-01-02T01:05:16.940Z,0
2019-01-02T01:06:16.001Z,0
2019-01-02T01:07:15.710Z,0
2019-01-02T01:08:16.868Z,0
2019-01-02T01:09:15.703Z,0
2019-01-02T01:10:16.775Z,0
2019-01-02T01:11:15.683Z,0
2019-01-02T01:12:15.941Z,0
2019-01-02T01:13:16.397Z,0
2019-01-02T01:14:15.653Z,0
2019-01-02T01:15:16.771Z,0
2019-01-02T01:16:15.872Z,0
2019-01-02T01:17:15.621Z,0
2019-01-02T01:18:16.725Z,0
2019-01-02T01:19:15.409Z,0
2019-01-02T01:20:15.930Z,0
2019-01-02T01:21:15.600Z,0
2019-01-02T01:22:15.594Z,0
2019-01-02T01:23:16.957Z,0
2019-01-02T01:24:15.309Z,0
2019-01-02T01:25:15.563Z,0
2019-01-02T01:26:16.490Z,0
2019-01-02T01:27:15.788Z,0
2019-01-02T01:28:15.510Z,0
2019-01-02T01:29:16.768Z,0
2019-01-02T01:30:15.749Z,0
2019-01-02T01:31:15.744Z,0
2019-01-02T01:32:16.649Z,0
2019-01-02T01:33:15.795Z,0
2019-01-02T01:34:15.522Z,0
2019-01-02T01:35:16.585Z,0
2019-01-02T01:36:15.457Z,0
2019-01-02T01:37:15.426Z,0
2019-01-02T01:38:16.003Z,0
2019-01-02T01:39:15.411Z,0
2019-01-02T01:40:15.156Z,0
2019-01-02T01:41:16.607Z,0
2019-01-02T01:42:15.387Z,0
2019-01-02T01:43:16.237Z,0
2019-01-02T01:44:15.132Z,0
2019-01-02T01:45:15.373Z,0
2019-01-02T01:46:15.873Z,0
2019-01-02T01:47:15.105Z,0
2019-01-02T01:48:15.326Z,0
2019-01-02T01:49:16.484Z,0
2019-01-02T01:50:15.559Z,0
2019-01-02T01:51:15.555Z,0
2019-01-02T01:52:15.933Z,0
2019-01-02T01:53:14.791Z,0
2019-01-02T01:54:15.268Z,0
2019-01-02T01:55:16.436Z,0
2019-01-02T01:56:15.518Z,0
2019-01-02T01:57:15.234Z,0
2019-01-02T01:58:15.518Z,0
2019-01-02T01:59:15.468Z,0
2019-01-02T02:00:15.657Z,0
2019-01-02T02:01:15.208Z,0
2019-01-02T02:02:15.460Z,0
2019-01-02T02:03:15.783Z,0
2019-01-02T02:04:15.424Z,0
2019-01-02T02:05:15.411Z,0
2019-01-02T02:06:16.145Z,0
2019-01-02T02:07:15.392Z,0
2019-01-02T02:08:15.139Z,0
2019-01-02T02:09:16.191Z,0
2019-01-02T02:10:14.870Z,0
2019-01-02T02:11:14.850Z,0
2019-01-02T02:12:16.088Z,0
2019-01-02T02:13:14.834Z,0
2019-01-02T02:14:15.073Z,0
2019-01-02T02:15:15.793Z,0
2019-01-02T02:16:14.832Z,0
2019-01-02T02:17:15.061Z,0
2019-01-02T02:18:15.504Z,0
2019-01-02T02:19:15.275Z,0
2019-01-02T02:20:15.393Z,0
2019-01-02T02:21:14.758Z,0
2019-01-02T02:22:15.237Z,0
2019-01-02T02:23:16.001Z,0
2019-01-02T02:24:15.200Z,0
2019-01-02T02:25:14.985Z,0
2019-01-02T02:26:15.984Z,0
2019-01-02T02:27:14.697Z,0
2019-01-02T02:28:14.967Z,0
2019-01-02T02:29:16.044Z,0
2019-01-02T02:30:14.911Z,0
2019-01-02T02:31:15.945Z,0
2019-01-02T02:32:15.146Z,0
2019-01-02T02:33:16.154Z,0
2019-01-02T02:34:15.926Z,0
2019-01-02T02:35:15.968Z,0
2019-01-02T02:36:15.804Z,0
2019-01-02T02:37:14.839Z,0
2019-01-02T02:38:15.747Z,0
2019-01-02T02:39:15.742Z,0
2019-01-02T02:40:14.824Z,0
2019-01-02T02:41:15.247Z,0
2019-01-02T02:42:15.536Z,0
2019-01-02T02:43:15.026Z,0
2019-01-02T02:44:16.167Z,0
2019-01-02T02:45:15.752Z,0
2019-01-02T02:46:15.353Z,0
2019-01-02T02:47:14.498Z,0
2019-01-02T02:48:15.862Z,0
2019-01-02T02:49:15.439Z,0
2019-01-02T02:50:14.745Z,0
2019-01-02T02:51:15.699Z,0
2019-01-02T02:52:14.704Z,0
2019-01-02T02:53:15.662Z,0
2019-01-02T02:54:15.844Z,0
2019-01-02T02:55:14.941Z,0
2019-01-02T02:56:16.038Z,0
2019-01-02T02:57:14.667Z,0
2019-01-02T02:58:15.208Z,0
2019-01-02T02:59:15.698Z,0
2019-01-02T03:00:14.856Z,0
2019-01-02T03:01:15.544Z,0
2019-01-02T03:02:16.002Z,0
2019-01-02T03:03:14.326Z,0
2019-01-02T03:04:15.329Z,0
2019-01-02T03:05:17.104Z,0
2019-01-02T03:06:14.342Z,0
2019-01-02T03:07:15.614Z,0
2019-01-02T03:08:15.420Z,0
2019-01-02T03:09:14.520Z,0
2019-01-02T03:10:15.379Z,0
2019-01-02T03:11:15.297Z,0
2019-01-02T03:12:14.513Z,0
2019-01-02T03:13:15.359Z,0
2019-01-02T03:14:15.453Z,0
2019-01-02T03:15:14.238Z,0
2019-01-02T03:16:15.343Z,0
2019-01-02T03:17:15.159Z,0
2019-01-02T03:18:14.710Z,0
2019-01-02T03:19:15.306Z,0
2019-01-02T03:20:15.448Z,0
2019-01-02T03:21:14.670Z,0
2019-01-02T03:22:15.137Z,0
2019-01-02T03:23:15.227Z,0
2019-01-02T03:24:14.191Z,0
2019-01-02T03:25:15.246Z,0
2019-01-02T03:26:14.743Z,0
2019-01-02T03:27:14.611Z,0
2019-01-02T03:28:15.618Z,0
2019-01-02T03:29:15.465Z,0
2019-01-02T03:30:15.417Z,0
2019-01-02T03:31:15.410Z,0
2019-01-02T03:32:15.535Z,0
2019-01-02T03:33:14.282Z,0
2019-01-02T03:34:14.303Z,0
2019-01-02T03:35:14.515Z,0
2019-01-02T03:36:14.810Z,0
2019-01-02T03:37:14.493Z,0
2019-01-02T03:38:14.252Z,0
2019-01-02T03:39:14.482Z,0
2019-01-02T03:40:14.216Z,0
2019-01-02T03:41:14.247Z,0
2019-01-02T03:42:14.221Z,0
2019-01-02T03:43:14.195Z,0
2019-01-02T03:44:14.191Z,0
2019-01-02T03:45:14.181Z,0
2019-01-02T03:46:14.181Z,0
2019-01-02T03:47:14.423Z,0
2019-01-02T03:48:14.154Z,0
2019-01-02T03:49:14.382Z,0
2019-01-02T03:50:14.369Z,0
2019-01-02T03:51:14.396Z,0
2019-01-02T03:52:14.195Z,0
2019-01-02T03:53:13.834Z,0
2019-01-02T03:54:13.836Z,0
2019-01-02T03:55:14.076Z,0
2019-01-02T03:56:14.311Z,0
2019-01-02T03:57:14.048Z,0
2019-01-02T03:58:14.290Z,0
2019-01-02T03:59:13.523Z,0
2019-01-02T04:00:14.032Z,0
2019-01-02T04:01:14.019Z,0
2019-01-02T04:02:14.249Z,0
2019-01-02T04:03:14.257Z,0
2019-01-02T04:04:14.231Z,0
2019-01-02T04:05:13.981Z,0
2019-01-02T04:06:17.104Z,0
2019-01-02T04:07:13.953Z,0
2019-01-02T04:08:13.937Z,0
2019-01-02T04:09:13.673Z,0
2019-01-02T04:10:13.907Z,0
2019-01-02T04:11:14.182Z,0
2019-01-02T04:12:14.046Z,0
2019-01-02T04:13:13.892Z,0
2019-01-02T04:14:14.079Z,0
2019-01-02T04:15:13.850Z,0
2019-01-02T04:16:13.849Z,0
2019-01-02T04:17:14.101Z,0
2019-01-02T04:18:14.089Z,0
2019-01-02T04:19:14.065Z,0
2019-01-02T04:20:13.835Z,0
2019-01-02T04:21:14.049Z,0
2019-01-02T04:22:14.061Z,0
2019-01-02T04:23:14.045Z,0
2019-01-02T04:24:13.508Z,0
2019-01-02T04:25:14.001Z,0
2019-01-02T04:26:14.017Z,0
2019-01-02T04:27:13.743Z,0
2019-01-02T04:28:13.477Z,0
2019-01-02T04:29:13.725Z,0
2019-01-02T04:30:13.696Z,0
2019-01-02T04:31:13.947Z,0
2019-01-02T04:32:15.197Z,0
2019-01-02T04:33:13.676Z,0
2019-01-02T04:34:13.406Z,0
2019-01-02T04:35:13.698Z,0
2019-01-02T04:36:13.665Z,0
2019-01-02T04:37:13.433Z,0
2019-01-02T04:38:13.385Z,0
2019-01-02T04:39:13.864Z,0
2019-01-02T04:40:15.273Z,0
2019-01-02T04:41:13.579Z,0
2019-01-02T04:42:13.565Z,0
2019-01-02T04:43:13.846Z,0
2019-01-02T04:44:13.546Z,0
2019-01-02T04:45:13.292Z,0
2019-01-02T04:46:13.275Z,0
2019-01-02T04:47:13.777Z,0
2019-01-02T04:48:13.766Z,0
2019-01-02T04:49:13.757Z,0
2019-01-02T04:50:13.248Z,0
2019-01-02T04:51:13.514Z,0
2019-01-02T04:52:14.323Z,0
2019-01-02T04:53:13.234Z,0
2019-01-02T04:54:13.191Z,0
2019-01-02T04:55:13.432Z,0
2019-01-02T04:56:13.176Z,0
2019-01-02T04:57:13.684Z,0
2019-01-02T04:58:13.648Z,0
2019-01-02T04:59:13.406Z,0
2019-01-02T05:00:13.388Z,0
2019-01-02T05:01:13.629Z,0
2019-01-02T05:02:13.373Z,0
2019-01-02T05:03:13.630Z,0
2019-01-02T05:04:13.593Z,0
2019-01-02T05:05:13.094Z,0
2019-01-02T05:06:13.342Z,0
2019-01-02T05:07:14.119Z,0
2019-01-02T05:08:13.567Z,0
2019-01-02T05:09:13.057Z,0
2019-01-02T05:10:13.297Z,0
2019-01-02T05:11:13.511Z,0
2019-01-02T05:12:13.265Z,0
2019-01-02T05:13:13.529Z,0
2019-01-02T05:14:13.250Z,0
2019-01-02T05:15:13.515Z,0
2019-01-02T05:16:13.465Z,0
2019-01-02T05:17:13.456Z,0
2019-01-02T05:18:12.937Z,0
2019-01-02T05:19:13.437Z,0
2019-01-02T05:20:12.960Z,0
2019-01-02T05:21:12.926Z,0
2019-01-02T05:22:13.178Z,0
2019-01-02T05:23:13.397Z,0
2019-01-02T05:24:13.148Z,0
2019-01-02T05:25:12.639Z,0
2019-01-02T05:26:12.880Z,0
2019-01-02T05:27:13.125Z,0
2019-01-02T05:28:13.082Z,0
2019-01-02T05:29:13.097Z,0
2019-01-02T05:30:13.882Z,0
2019-01-02T05:31:13.324Z,0
2019-01-02T05:32:13.307Z,0
2019-01-02T05:33:12.789Z,0
2019-01-02T05:34:13.040Z,0
2019-01-02T05:35:13.034Z,0
2019-01-02T05:36:13.270Z,0
2019-01-02T05:37:12.836Z,0
2019-01-02T05:38:13.266Z,0
2019-01-02T05:39:12.759Z,0
2019-01-02T05:40:12.474Z,0
2019-01-02T05:41:12.951Z,0
2019-01-02T05:42:13.007Z,0
2019-01-02T05:43:13.203Z,0
2019-01-02T05:44:12.685Z,0
2019-01-02T05:45:13.183Z,0
2019-01-02T05:46:12.908Z,0
2019-01-02T05:47:13.150Z,0
2019-01-02T05:48:12.889Z,0
2019-01-02T05:49:12.641Z,0
2019-01-02T05:50:12.612Z,0
2019-01-02T05:51:13.152Z,0
2019-01-02T05:52:13.112Z,0
2019-01-02T05:53:13.087Z,0
2019-01-02T05:54:13.088Z,0
2019-01-02T05:55:12.837Z,0
2019-01-02T05:56:13.073Z,0
2019-01-02T05:57:12.558Z,0
2019-01-02T05:58:13.028Z,0
2019-01-02T05:59:12.776Z,0
2019-01-02T06:00:12.795Z,0
2019-01-02T06:01:13.030Z,0
2019-01-02T06:02:12.248Z,0
2019-01-02T06:03:12.756Z,0
2019-01-02T06:04:12.748Z,0
2019-01-02T06:05:12.991Z,0
2019-01-02T06:06:12.948Z,0
2019-01-02T06:07:12.755Z,0
2019-01-02T06:08:12.439Z,0
2019-01-02T06:09:12.693Z,0
2019-01-02T06:10:12.901Z,0
2019-01-02T06:11:12.645Z,0
2019-01-02T06:12:12.887Z,0
2019-01-02T06:13:12.908Z,0
2019-01-02T06:14:12.618Z,0
2019-01-02T06:15:12.907Z,0
2019-01-02T06:16:12.111Z,0
2019-01-02T06:17:12.595Z,0
2019-01-02T06:18:12.096Z,0
2019-01-02T06:19:12.839Z,0
2019-01-02T06:20:12.599Z,0
2019-01-02T06:21:12.550Z,0
2019-01-02T06:22:13.083Z,0
2019-01-02T06:23:12.283Z,0
2019-01-02T06:24:12.767Z,0
2019-01-02T06:25:12.277Z,0
2019-01-02T06:26:12.513Z,0
2019-01-02T06:27:12.496Z,0
2019-01-02T06:28:12.736Z,0
2019-01-02T06:29:12.472Z,0
2019-01-02T06:30:13.412Z,0
2019-01-02T06:31:12.706Z,0
2019-01-02T06:32:12.455Z,0
2019-01-02T06:33:12.426Z,0
2019-01-02T06:34:12.438Z,0
2019-01-02T06:35:12.403Z,0
2019-01-02T06:36:12.648Z,0
2019-01-02T06:37:12.148Z,0
2019-01-02T06:38:12.640Z,0
2019-01-02T06:39:12.615Z,0
2019-01-02T06:40:12.606Z,0
2019-01-02T06:41:12.107Z,0
2019-01-02T06:42:12.337Z,0
2019-01-02T06:43:12.590Z,0
2019-01-02T06:44:12.571Z,4
2019-01-02T06:45:12.554Z,4
2019-01-02T06:46:12.294Z,0
2019-01-02T06:47:12.293Z,0
2019-01-02T06:48:12.518Z,4
2019-01-02T06:49:12.515Z,0
2019-01-02T06:50:12.024Z,4
2019-01-02T06:51:12.276Z,4
2019-01-02T06:52:12.242Z,4
2019-01-02T06:53:12.477Z,4
2019-01-02T06:54:12.210Z,8
2019-01-02T06:55:12.195Z,8
2019-01-02T06:56:12.206Z,12
2019-01-02T06:57:12.195Z,12
2019-01-02T06:58:12.423Z,12
2019-01-02T06:59:12.170Z,12
2019-01-02T07:00:12.155Z,16
2019-01-02T07:01:12.141Z,16
2019-01-02T07:02:12.141Z,16
2019-01-02T07:03:11.893Z,20
2019-01-02T07:04:12.111Z,24
2019-01-02T07:05:11.861Z,28
2019-01-02T07:06:12.344Z,28
2019-01-02T07:07:11.827Z,28
2019-01-02T07:08:11.824Z,36
2019-01-02T07:09:12.307Z,36
2019-01-02T07:10:12.311Z,40
2019-01-02T07:11:12.305Z,48
2019-01-02T07:12:12.036Z,52
2019-01-02T07:13:12.250Z,64
2019-01-02T07:14:12.309Z,80
2019-01-02T07:15:12.248Z,96
2019-01-02T07:16:11.992Z,104
2019-01-02T07:17:11.980Z,104
2019-01-02T07:18:11.991Z,104
2019-01-02T07:19:11.998Z,104
2019-01-02T07:20:12.213Z,112
2019-01-02T07:21:12.324Z,124
2019-01-02T07:22:12.183Z,136
2019-01-02T07:23:12.218Z,148
2019-01-02T07:24:12.153Z,176
2019-01-02T07:25:12.164Z,204
2019-01-02T07:26:12.155Z,236
2019-01-02T07:27:11.915Z,264
2019-01-02T07:28:12.114Z,280
2019-01-02T07:29:12.103Z,284
2019-01-02T07:30:12.095Z,264
2019-01-02T07:31:12.089Z,248
2019-01-02T07:32:11.838Z,256
2019-01-02T07:33:12.076Z,284
2019-01-02T07:34:11.303Z,300
2019-01-02T07:35:11.794Z,292
2019-01-02T07:36:12.046Z,280
2019-01-02T07:37:12.025Z,268
2019-01-02T07:38:12.004Z,268
2019-01-02T07:39:11.782Z,260
2019-01-02T07:40:12.004Z,244
2019-01-02T07:41:11.729Z,236
2019-01-02T07:42:11.972Z,228
2019-01-02T07:43:11.952Z,232
2019-01-02T07:44:11.714Z,240
2019-01-02T07:45:11.680Z,244
2019-01-02T07:46:11.942Z,248
2019-01-02T07:47:11.940Z,256
2019-01-02T07:48:11.911Z,276
2019-01-02T07:49:11.394Z,284
2019-01-02T07:50:11.897Z,292
2019-01-02T07:51:11.885Z,308
2019-01-02T07:52:11.866Z,328
2019-01-02T07:53:12.642Z,380
2019-01-02T07:54:11.592Z,404
2019-01-02T07:55:11.334Z,400
2019-01-02T07:56:11.830Z,396
2019-01-02T07:57:11.614Z,420
2019-01-02T07:58:12.380Z,448
2019-01-02T07:59:11.787Z,488
2019-01-02T08:00:11.533Z,524
2019-01-02T08:01:11.780Z,556
2019-01-02T08:02:11.264Z,588
2019-01-02T08:03:11.751Z,620
2019-01-02T08:04:11.752Z,644
2019-01-02T08:05:11.749Z,668
2019-01-02T08:06:11.484Z,708
2019-01-02T08:07:11.210Z,760
2019-01-02T08:08:11.446Z,816
2019-01-02T08:09:11.193Z,856
2019-01-02T08:10:11.189Z,896
2019-01-02T08:11:11.438Z,980
2019-01-02T08:12:11.427Z,960
2019-01-02T08:13:11.148Z,860
2019-01-02T08:14:11.142Z,768
2019-01-02T08:15:11.140Z,784
2019-01-02T08:16:11.634Z,748
2019-01-02T08:17:11.373Z,708
2019-01-02T08:18:11.347Z,708
2019-01-02T08:19:11.608Z,704
2019-01-02T08:20:11.091Z,708
2019-01-02T08:21:11.316Z,780
2019-01-02T08:22:11.577Z,840
2019-01-02T08:23:11.315Z,980
2019-01-02T08:24:11.308Z,1024
2019-01-02T08:25:11.587Z,1072
2019-01-02T08:26:11.518Z,1136
2019-01-02T08:27:11.542Z,1168
2019-01-02T08:28:11.277Z,1212
2019-01-02T08:29:11.021Z,1248
2019-01-02T08:30:11.242Z,1204
2019-01-02T08:31:11.229Z,1176
2019-01-02T08:32:10.969Z,1196
2019-01-02T08:33:11.467Z,1248
2019-01-02T08:34:10.939Z,1288
2019-01-02T08:35:11.435Z,1364
2019-01-02T08:36:10.688Z,1392
2019-01-02T08:37:11.410Z,1396
2019-01-02T08:38:11.171Z,1424
2019-01-02T08:39:11.148Z,1508
2019-01-02T08:40:10.643Z,1528
2019-01-02T08:41:11.381Z,1464
2019-01-02T08:42:11.373Z,1428
2019-01-02T08:43:10.882Z,1448
2019-01-02T08:44:10.859Z,1476
2019-01-02T08:45:11.091Z,1540
2019-01-02T08:46:11.315Z,1592
2019-01-02T08:47:10.835Z,1612
2019-01-02T08:48:11.310Z,1724
2019-01-02T08:49:11.318Z,1864
2019-01-02T08:50:11.047Z,2028
2019-01-02T08:51:10.778Z,2160
2019-01-02T08:52:11.028Z,2208
2019-01-02T08:53:11.000Z,2136
2019-01-02T08:54:12.200Z,2004
2019-01-02T08:55:10.751Z,1992
2019-01-02T08:56:10.717Z,2044
2019-01-02T08:57:11.225Z,2080
2019-01-02T08:58:10.714Z,2092
2019-01-02T08:59:11.205Z,2020
2019-01-02T09:00:10.686Z,1876
2019-01-02T09:01:10.677Z,1844
2019-01-02T09:02:10.925Z,1868
2019-01-02T09:03:11.148Z,1984
2019-01-02T09:04:11.155Z,2172
2019-01-02T09:05:10.907Z,2428
2019-01-02T09:06:11.140Z,2596
2019-01-02T09:07:11.102Z,2580
2019-01-02T09:08:10.608Z,2520
2019-01-02T09:09:13.303Z,2540
2019-01-02T09:10:11.095Z,2572
2019-01-02T09:11:11.065Z,2516
2019-01-02T09:12:11.071Z,2724
2019-01-02T09:13:10.816Z,2352
2019-01-02T09:14:11.036Z,2364
2019-01-02T09:15:10.786Z,2416
2019-01-02T09:16:10.537Z,2372
2019-01-02T09:17:10.551Z,2200
2019-01-02T09:18:11.010Z,2012
2019-01-02T09:19:10.254Z,1920
2019-01-02T09:20:10.743Z,1724
2019-01-02T09:21:11.025Z,1752
2019-01-02T09:22:10.479Z,1612
2019-01-02T09:23:10.483Z,1652
2019-01-02T09:24:10.473Z,1760
2019-01-02T09:25:10.705Z,1724
2019-01-02T09:26:10.941Z,1720
2019-01-02T09:27:10.670Z,1724
2019-01-02T09:28:10.432Z,1700
2019-01-02T09:29:10.697Z,1728
2019-01-02T09:30:10.183Z,1728
2019-01-02T09:31:10.879Z,1708
2019-01-02T09:32:10.620Z,1708
2019-01-02T09:33:10.634Z,1688
2019-01-02T09:34:10.377Z,1584
2019-01-02T09:35:10.372Z,1392
2019-01-02T09:36:10.606Z,1300
2019-01-02T09:37:10.388Z,1280
2019-01-02T09:38:10.815Z,1360
2019-01-02T09:39:10.876Z,1684
2019-01-02T09:40:10.861Z,1992
2019-01-02T09:41:10.870Z,1708
2019-01-02T09:42:10.809Z,1684
2019-01-02T09:43:10.540Z,1664
2019-01-02T09:44:10.774Z,1808
2019-01-02T09:45:10.760Z,2024
2019-01-02T09:46:10.751Z,2352
2019-01-02T09:47:10.517Z,2524
2019-01-02T09:48:10.735Z,2484
2019-01-02T09:49:10.504Z,2448
2019-01-02T09:50:10.995Z,2340
2019-01-02T09:51:10.453Z,2172
2019-01-02T09:52:10.698Z,1984
2019-01-02T09:53:10.460Z,1828
2019-01-02T09:54:10.668Z,1832
2019-01-02T09:55:11.864Z,1984
2019-01-02T09:56:10.204Z,2040
2019-01-02T09:57:10.638Z,2096
2019-01-02T09:58:10.382Z,2192
2019-01-02T09:59:10.629Z,2300
2019-01-02T10:00:10.147Z,2392
2019-01-02T10:01:10.608Z,2400
2019-01-02T10:02:10.601Z,2396
2019-01-02T10:03:10.105Z,2416
2019-01-02T10:04:12.052Z,2452
2019-01-02T10:05:10.125Z,2488
2019-01-02T10:06:10.347Z,2528
2019-01-02T10:07:10.078Z,2536
2019-01-02T10:08:10.332Z,2500
2019-01-02T10:09:10.549Z,2488
2019-01-02T10:10:10.334Z,2592
2019-01-02T10:11:10.522Z,2880
2019-01-02T10:12:10.306Z,3288
2019-01-02T10:13:10.520Z,3524
2019-01-02T10:14:10.259Z,3456
2019-01-02T10:15:11.131Z,3296
2019-01-02T10:16:10.248Z,3272
2019-01-02T10:17:10.215Z,3332
2019-01-02T10:18:10.210Z,3396
2019-01-02T10:19:10.219Z,3464
2019-01-02T10:20:09.949Z,3512
2019-01-02T10:21:10.420Z,3528
2019-01-02T10:22:10.199Z,3504
2019-01-02T10:23:10.220Z,3536
2019-01-02T10:24:10.231Z,3556
2019-01-02T10:25:13.330Z,3488
2019-01-02T10:26:10.416Z,3364
2019-01-02T10:27:10.420Z,3204
2019-01-02T10:28:10.126Z,2996
2019-01-02T10:29:10.355Z,2744
2019-01-02T10:30:09.852Z,2536
2019-01-02T10:31:10.334Z,2376
2019-01-02T10:32:10.329Z,2896
2019-01-02T10:33:10.310Z,3612
2019-01-02T10:34:09.821Z,4164
2019-01-02T10:35:09.828Z,4428
2019-01-02T10:36:10.312Z,4492
2019-01-02T10:37:10.045Z,4484
2019-01-02T10:38:09.781Z,4576
2019-01-02T10:39:09.768Z,4896
2019-01-02T10:40:10.048Z,5472
2019-01-02T10:41:10.007Z,6568
2019-01-02T10:42:10.890Z,7064
2019-01-02T10:43:09.979Z,7080
2019-01-02T10:44:10.203Z,6704
2019-01-02T10:45:09.705Z,5688
2019-01-02T10:46:09.966Z,4700
2019-01-02T10:47:09.945Z,4224
2019-01-02T10:48:10.180Z,3348
2019-01-02T10:49:09.921Z,2764
2019-01-02T10:50:09.905Z,2104
2019-01-02T10:51:10.175Z,1728
2019-01-02T10:52:10.141Z,1632
2019-01-02T10:53:10.140Z,1664
2019-01-02T10:54:09.938Z,1752
2019-01-02T10:55:12.257Z,1912
2019-01-02T10:56:09.885Z,2212
2019-01-02T10:57:10.161Z,2448
2019-01-02T10:58:09.843Z,2564
2019-01-02T10:59:09.828Z,2644
2019-01-02T11:00:09.848Z,2780
2019-01-02T11:01:09.555Z,2904
2019-01-02T11:02:09.841Z,2928
2019-01-02T11:03:10.047Z,2840
2019-01-02T11:04:10.082Z,2876
2019-01-02T11:05:10.049Z,2436
2019-01-02T11:06:09.561Z,2404
2019-01-02T11:07:09.774Z,2476
2019-01-02T11:08:13.536Z,2568
2019-01-02T11:09:09.776Z,2628
2019-01-02T11:10:09.975Z,2684
2019-01-02T11:11:09.735Z,2712
2019-01-02T11:12:09.969Z,2716
2019-01-02T11:13:09.957Z,2748
2019-01-02T11:14:09.449Z,2796
2019-01-02T11:15:09.695Z,2908
2019-01-02T11:16:09.945Z,2996
2019-01-02T11:17:09.680Z,3048
2019-01-02T11:18:09.734Z,3140
2019-01-02T11:19:09.415Z,3316
2019-01-02T11:20:09.919Z,3580
2019-01-02T11:21:10.377Z,3848
2019-01-02T11:22:09.880Z,4020
2019-01-02T11:23:09.902Z,4108
2019-01-02T11:24:09.367Z,4036
2019-01-02T11:25:09.623Z,3908
2019-01-02T11:26:09.858Z,3912
2019-01-02T11:27:09.611Z,3996
2019-01-02T11:28:09.826Z,4064
2019-01-02T11:29:09.824Z,4140
2019-01-02T11:30:09.803Z,4416
2019-01-02T11:31:09.823Z,4324
2019-01-02T11:32:09.542Z,4324
2019-01-02T11:33:09.051Z,4644
2019-01-02T11:34:09.285Z,4696
2019-01-02T11:35:10.861Z,5012
2019-01-02T11:36:09.762Z,5568
2019-01-02T11:37:09.747Z,5868
2019-01-02T11:38:09.498Z,5528
2019-01-02T11:39:09.475Z,5460
2019-01-02T11:40:09.703Z,5392
2019-01-02T11:41:09.191Z,5896
2019-01-02T11:42:09.452Z,4980
2019-01-02T11:43:09.198Z,4696
2019-01-02T11:44:09.695Z,4504
2019-01-02T11:45:09.189Z,4268
2019-01-02T11:46:09.408Z,4068
2019-01-02T11:47:09.668Z,3956
2019-01-02T11:48:09.404Z,4224
2019-01-02T11:49:09.389Z,3728
2019-01-02T11:50:09.629Z,3704
2019-01-02T11:51:09.668Z,3724
2019-01-02T11:52:09.124Z,3780
2019-01-02T11:53:09.608Z,3868
2019-01-02T11:54:09.584Z,4060
2019-01-02T11:55:09.580Z,4276
2019-01-02T11:56:10.330Z,5128
2019-01-02T11:57:09.549Z,5096
2019-01-02T11:58:09.294Z,5068
2019-01-02T11:59:09.298Z,5060
2019-01-02T12:00:09.578Z,5048
2019-01-02T12:01:09.276Z,5040
2019-01-02T12:02:09.515Z,5040
2019-01-02T12:03:09.278Z,5020
2019-01-02T12:04:09.238Z,5028
2019-01-02T12:05:09.486Z,5012
2019-01-02T12:06:09.503Z,4996
2019-01-02T12:07:09.475Z,4992
2019-01-02T12:08:08.986Z,4988
2019-01-02T12:09:09.517Z,4968
2019-01-02T12:10:09.197Z,4968
2019-01-02T12:11:08.919Z,4976
2019-01-02T12:12:09.413Z,4932
2019-01-02T12:13:09.539Z,4916
2019-01-02T12:14:09.382Z,4912
2019-01-02T12:15:09.385Z,4904
2019-01-02T12:16:08.642Z,4884
2019-01-02T12:17:09.184Z,4880
2019-01-02T12:18:09.139Z,4872
2019-01-02T12:19:09.112Z,5052
2019-01-02T12:20:09.340Z,5208
2019-01-02T12:21:09.356Z,5504
2019-01-02T12:22:09.338Z,5884
2019-01-02T12:23:09.335Z,6212
2019-01-02T12:24:08.878Z,6312
2019-01-02T12:25:09.324Z,5800
2019-01-02T12:26:13.625Z,5564
2019-01-02T12:27:08.782Z,5448
2019-01-02T12:28:09.035Z,5528
2019-01-02T12:29:09.022Z,5272
2019-01-02T12:30:08.532Z,5296
2019-01-02T12:31:09.260Z,5104
2019-01-02T12:32:08.766Z,4456
2019-01-02T12:33:09.272Z,4436
2019-01-02T12:34:09.006Z,4492
2019-01-02T12:35:09.215Z,4616
2019-01-02T12:36:08.725Z,4720
2019-01-02T12:37:09.199Z,4700
2019-01-02T12:38:09.198Z,5000
2019-01-02T12:39:08.943Z,5332
2019-01-02T12:40:08.970Z,6064
2019-01-02T12:41:08.983Z,6136
2019-01-02T12:42:08.728Z,5436
2019-01-02T12:43:08.665Z,5604
2019-01-02T12:44:08.903Z,5204
2019-01-02T12:45:09.182Z,5416
2019-01-02T12:46:09.125Z,5892
2019-01-02T12:47:08.622Z,5496
2019-01-02T12:48:09.121Z,5316
2019-01-02T12:49:09.121Z,4992
2019-01-02T12:50:09.101Z,4284
2019-01-02T12:51:08.853Z,3984
2019-01-02T12:52:08.845Z,4236
2019-01-02T12:53:09.066Z,4052
2019-01-02T12:54:09.059Z,3464
2019-01-02T12:55:09.067Z,3116
2019-01-02T12:56:09.066Z,2960
2019-01-02T12:57:09.651Z,2908
2019-01-02T12:58:09.030Z,2772
2019-01-02T12:59:08.780Z,2656
2019-01-02T13:00:08.804Z,2572
2019-01-02T13:01:09.000Z,2560
2019-01-02T13:02:08.776Z,2528
2019-01-02T13:03:08.501Z,2484
2019-01-02T13:04:08.741Z,2328
2019-01-02T13:05:09.004Z,2244
2019-01-02T13:06:08.977Z,2148
2019-01-02T13:07:08.445Z,2056
2019-01-02T13:08:08.466Z,1968
2019-01-02T13:09:08.678Z,1684
2019-01-02T13:10:08.679Z,1340
2019-01-02T13:11:08.693Z,1200
2019-01-02T13:12:09.022Z,1056
2019-01-02T13:13:08.650Z,896
2019-01-02T13:14:08.902Z,924
2019-01-02T13:15:08.876Z,1180
2019-01-02T13:16:08.636Z,1496
2019-01-02T13:17:08.858Z,1876
2019-01-02T13:18:08.879Z,2100
2019-01-02T13:19:08.861Z,2020
2019-01-02T13:20:08.397Z,1868
2019-01-02T13:21:08.810Z,1908
2019-01-02T13:22:08.852Z,2124
2019-01-02T13:23:08.798Z,2380
2019-01-02T13:24:08.568Z,2556
2019-01-02T13:25:08.795Z,2684
2019-01-02T13:26:08.774Z,2792
2019-01-02T13:27:10.584Z,2864
2019-01-02T13:28:08.763Z,2920
2019-01-02T13:29:09.428Z,2996
2019-01-02T13:30:08.497Z,3032
2019-01-02T13:31:08.482Z,2952
2019-01-02T13:32:08.227Z,2784
2019-01-02T13:33:08.712Z,2680
2019-01-02T13:34:08.489Z,2660
2019-01-02T13:35:08.811Z,2696
2019-01-02T13:36:08.729Z,2756
2019-01-02T13:37:08.178Z,2900
2019-01-02T13:38:08.580Z,2992
2019-01-02T13:39:08.411Z,2980
2019-01-02T13:40:08.676Z,2896
2019-01-02T13:41:08.640Z,2872
2019-01-02T13:42:08.727Z,2900
2019-01-02T13:43:08.388Z,3020
2019-01-02T13:44:08.390Z,3144
2019-01-02T13:45:08.611Z,3224
2019-01-02T13:46:08.615Z,3244
2019-01-02T13:47:08.335Z,3212
2019-01-02T13:48:08.582Z,3160
2019-01-02T13:49:08.308Z,3024
2019-01-02T13:50:08.583Z,2864
2019-01-02T13:51:08.993Z,2756
2019-01-02T13:52:08.274Z,2732
2019-01-02T13:53:08.528Z,2692
2019-01-02T13:54:08.281Z,2624
2019-01-02T13:55:08.272Z,2560
2019-01-02T13:56:08.038Z,2560
2019-01-02T13:57:12.086Z,2544
2019-01-02T13:58:08.242Z,2500
2019-01-02T13:59:08.450Z,2416
2019-01-02T14:00:08.199Z,2348
2019-01-02T14:01:08.456Z,2324
2019-01-02T14:02:08.203Z,2296
2019-01-02T14:03:08.430Z,2280